sensor_id;sensor_type;location;lat;lon;timestamp;temperature;humidity
6335;DHT22;3200;48.204;11.576;2024-01-15T00:00:33;-0.60;99.90
6335;DHT22;3200;48.204;11.576;2024-01-15T00:02:59;-0.60;99.90
6335;DHT22;3200;48.204;11.576;2024-01-15T00:05:25;-0.50;99.90
6335;DHT22;3200;48.204;11.576;2024-01-15T00:07:53;-0.50;99.90
6335;DHT22;3200;48.204;11.576;2024-01-15T00:10:19;-0.40;99.90
6335;DHT22;3200;48.204;11.576;2024-01-15T00:12:45;-0.50;99.90
6335;DHT22;3200;48.204;11.576;2024-01-15T00:15:11;-0.60;99.90
6335;DHT22;3200;48.204;11.576;2024-01-15T00:17:37;-0.50;99.90
6335;DHT22;3200;48.204;11.576;2024-01-15T00:20:03;-0.50;99.90
6335;DHT22;3200;48.204;11.576;2024-01-15T00:22:30;-0.50;99.90
6335;DHT22;3200;48.204;11.576;2024-01-15T00:24:56;-0.50;99.90
6335;DHT22;3200;48.204;11.576;2024-01-15T00:27:22;-0.60;99.90
6335;DHT22;3200;48.204;11.576;2024-01-15T00:29:49;-0.60;99.90
6335;DHT22;3200;48.204;11.576;2024-01-15T00:32:19;-0.70;99.90
6335;DHT22;3200;48.204;11.576;2024-01-15T00:34:46;-0.70;99.90
6335;DHT22;3200;48.204;11.576;2024-01-15T00:37:12;-0.60;99.90
6335;DHT22;3200;48.204;11.576;2024-01-15T00:39:41;-0.70;99.90
6335;DHT22;3200;48.204;11.576;2024-01-15T00:42:07;-0.70;99.90
6335;DHT22;3200;48.204;11.576;2024-01-15T00:44:36;-0.70;99.90
6335;DHT22;3200;48.204;11.576;2024-01-15T00:47:02;-0.80;99.90
6335;DHT22;3200;48.204;11.576;2024-01-15T00:49:28;-0.80;99.90
6335;DHT22;3200;48.204;11.576;2024-01-15T00:51:54;-0.80;99.90
6335;DHT22;3200;48.204;11.576;2024-01-15T00:54:20;-0.80;99.90
6335;DHT22;3200;48.204;11.576;2024-01-15T00:56:46;-0.70;99.90
6335;DHT22;3200;48.204;11.576;2024-01-15T00:59:14;-0.70;99.90
6335;DHT22;3200;48.204;11.576;2024-01-15T01:01:43;-0.60;99.90
6335;DHT22;3200;48.204;11.576;2024-01-15T01:04:11;-0.60;99.90
6335;DHT22;3200;48.204;11.576;2024-01-15T01:06:38;-0.70;99.90
6335;DHT22;3200;48.204;11.576;2024-01-15T01:09:04;-0.60;99.90
6335;DHT22;3200;48.204;11.576;2024-01-15T01:11:30;-0.80;99.90
6335;DHT22;3200;48.204;11.576;2024-01-15T01:13:59;-0.80;99.90
6335;DHT22;3200;48.204;11.576;2024-01-15T01:16:32;-0.70;99.90
6335;DHT22;3200;48.204;11.576;2024-01-15T01:19:05;-0.70;99.90
6335;DHT22;3200;48.204;11.576;2024-01-15T01:21:33;-0.80;99.90
6335;DHT22;3200;48.204;11.576;2024-01-15T01:23:59;-0.80;99.90
6335;DHT22;3200;48.204;11.576;2024-01-15T01:26:29;-0.90;99.90
6335;DHT22;3200;48.204;11.576;2024-01-15T01:29:13;-1.00;99.90
6335;DHT22;3200;48.204;11.576;2024-01-15T01:31:45;-1.20;99.90
6335;DHT22;3200;48.204;11.576;2024-01-15T01:34:14;-1.30;99.90
6335;DHT22;3200;48.204;11.576;2024-01-15T01:36:44;-1.40;99.90
6335;DHT22;3200;48.204;11.576;2024-01-15T01:39:10;-1.50;99.90
6335;DHT22;3200;48.204;11.576;2024-01-15T01:41:37;-1.60;99.90
6335;DHT22;3200;48.204;11.576;2024-01-15T01:44:03;-1.70;99.90
6335;DHT22;3200;48.204;11.576;2024-01-15T01:46:29;-1.80;99.90
6335;DHT22;3200;48.204;11.576;2024-01-15T01:48:56;-1.80;99.90
6335;DHT22;3200;48.204;11.576;2024-01-15T01:51:24;-1.90;99.90
6335;DHT22;3200;48.204;11.576;2024-01-15T01:53:51;-1.90;99.90
6335;DHT22;3200;48.204;11.576;2024-01-15T01:56:17;-1.90;99.90
6335;DHT22;3200;48.204;11.576;2024-01-15T01:58:44;-2.10;99.90
6335;DHT22;3200;48.204;11.576;2024-01-15T02:01:12;-2.00;99.90
6335;DHT22;3200;48.204;11.576;2024-01-15T02:03:40;-2.10;99.90
6335;DHT22;3200;48.204;11.576;2024-01-15T02:06:06;-2.10;99.90
6335;DHT22;3200;48.204;11.576;2024-01-15T02:08:32;-2.20;99.90
6335;DHT22;3200;48.204;11.576;2024-01-15T02:10:58;-2.20;99.90
6335;DHT22;3200;48.204;11.576;2024-01-15T02:13:24;-2.20;99.90
6335;DHT22;3200;48.204;11.576;2024-01-15T02:15:50;-2.10;99.90
6335;DHT22;3200;48.204;11.576;2024-01-15T02:18:16;-2.10;99.90
6335;DHT22;3200;48.204;11.576;2024-01-15T02:20:42;-2.10;99.90
6335;DHT22;3200;48.204;11.576;2024-01-15T02:23:10;-2.10;99.90
6335;DHT22;3200;48.204;11.576;2024-01-15T02:25:44;-2.10;99.90
6335;DHT22;3200;48.204;11.576;2024-01-15T02:28:15;-2.00;99.90
6335;DHT22;3200;48.204;11.576;2024-01-15T02:30:43;-2.00;99.90
6335;DHT22;3200;48.204;11.576;2024-01-15T02:33:10;-1.90;99.90
6335;DHT22;3200;48.204;11.576;2024-01-15T02:35:37;-1.80;99.90
6335;DHT22;3200;48.204;11.576;2024-01-15T02:38:03;-1.80;99.90
6335;DHT22;3200;48.204;11.576;2024-01-15T02:40:33;-1.80;99.90
6335;DHT22;3200;48.204;11.576;2024-01-15T02:43:00;-1.90;99.90
6335;DHT22;3200;48.204;11.576;2024-01-15T02:45:26;-1.80;99.90
6335;DHT22;3200;48.204;11.576;2024-01-15T02:47:52;-1.80;99.90
6335;DHT22;3200;48.204;11.576;2024-01-15T02:50:18;-1.70;99.90
6335;DHT22;3200;48.204;11.576;2024-01-15T02:52:44;-1.80;99.90
6335;DHT22;3200;48.204;11.576;2024-01-15T02:55:10;-1.80;99.90
6335;DHT22;3200;48.204;11.576;2024-01-15T02:57:36;-1.70;99.90
6335;DHT22;3200;48.204;11.576;2024-01-15T03:00:02;-1.70;99.90
6335;DHT22;3200;48.204;11.576;2024-01-15T03:02:29;-1.70;99.90
6335;DHT22;3200;48.204;11.576;2024-01-15T03:04:57;-1.70;99.90
6335;DHT22;3200;48.204;11.576;2024-01-15T03:07:23;-1.60;99.90
6335;DHT22;3200;48.204;11.576;2024-01-15T03:09:49;-1.60;99.90
6335;DHT22;3200;48.204;11.576;2024-01-15T03:12:15;-1.60;99.90
6335;DHT22;3200;48.204;11.576;2024-01-15T03:14:42;-1.60;99.90
6335;DHT22;3200;48.204;11.576;2024-01-15T03:17:07;-1.50;99.90
6335;DHT22;3200;48.204;11.576;2024-01-15T03:19:35;-1.50;99.90
6335;DHT22;3200;48.204;11.576;2024-01-15T03:22:01;-1.60;99.90
6335;DHT22;3200;48.204;11.576;2024-01-15T03:24:29;-1.60;99.90
6335;DHT22;3200;48.204;11.576;2024-01-15T03:26:56;-1.50;99.90
6335;DHT22;3200;48.204;11.576;2024-01-15T03:29:26;-1.60;99.90
6335;DHT22;3200;48.204;11.576;2024-01-15T03:31:52;-1.60;99.90
6335;DHT22;3200;48.204;11.576;2024-01-15T03:34:19;-1.60;99.90
6335;DHT22;3200;48.204;11.576;2024-01-15T03:36:45;-1.60;99.90
6335;DHT22;3200;48.204;11.576;2024-01-15T03:39:11;-1.60;99.90
6335;DHT22;3200;48.204;11.576;2024-01-15T03:41:36;-1.60;99.90
6335;DHT22;3200;48.204;11.576;2024-01-15T03:44:02;-1.60;99.90
6335;DHT22;3200;48.204;11.576;2024-01-15T03:46:28;-1.60;99.90
6335;DHT22;3200;48.204;11.576;2024-01-15T03:48:54;-1.60;99.90
6335;DHT22;3200;48.204;11.576;2024-01-15T03:51:20;-1.60;99.90
6335;DHT22;3200;48.204;11.576;2024-01-15T03:53:46;-1.60;99.90
6335;DHT22;3200;48.204;11.576;2024-01-15T03:56:12;-1.60;99.90
6335;DHT22;3200;48.204;11.576;2024-01-15T03:58:38;-1.60;99.90
6335;DHT22;3200;48.204;11.576;2024-01-15T04:01:08;-1.60;99.90
6335;DHT22;3200;48.204;11.576;2024-01-15T04:03:35;-1.70;99.90
6335;DHT22;3200;48.204;11.576;2024-01-15T04:06:01;-1.70;99.90
6335;DHT22;3200;48.204;11.576;2024-01-15T04:08:27;-1.60;99.90
6335;DHT22;3200;48.204;11.576;2024-01-15T04:10:53;-1.50;99.90
6335;DHT22;3200;48.204;11.576;2024-01-15T04:13:18;-1.60;99.90
6335;DHT22;3200;48.204;11.576;2024-01-15T04:15:44;-1.50;99.90
6335;DHT22;3200;48.204;11.576;2024-01-15T04:18:10;-1.50;99.90
6335;DHT22;3200;48.204;11.576;2024-01-15T04:20:36;-1.40;99.90
6335;DHT22;3200;48.204;11.576;2024-01-15T04:23:02;-1.40;99.90
6335;DHT22;3200;48.204;11.576;2024-01-15T04:25:28;-1.40;99.90
6335;DHT22;3200;48.204;11.576;2024-01-15T04:27:54;-1.40;99.90
6335;DHT22;3200;48.204;11.576;2024-01-15T04:30:19;-1.40;99.90
6335;DHT22;3200;48.204;11.576;2024-01-15T04:32:45;-1.40;99.90
6335;DHT22;3200;48.204;11.576;2024-01-15T04:35:11;-1.40;99.90
6335;DHT22;3200;48.204;11.576;2024-01-15T04:37:39;-1.40;99.90
6335;DHT22;3200;48.204;11.576;2024-01-15T04:40:06;-1.30;99.90
6335;DHT22;3200;48.204;11.576;2024-01-15T04:42:32;-1.40;99.90
6335;DHT22;3200;48.204;11.576;2024-01-15T04:44:58;-1.40;99.90
6335;DHT22;3200;48.204;11.576;2024-01-15T04:47:24;-1.40;99.90
6335;DHT22;3200;48.204;11.576;2024-01-15T04:49:50;-1.40;99.90
6335;DHT22;3200;48.204;11.576;2024-01-15T04:52:17;-1.40;99.90
6335;DHT22;3200;48.204;11.576;2024-01-15T04:54:42;-1.40;99.90
6335;DHT22;3200;48.204;11.576;2024-01-15T04:57:08;-1.40;99.90
6335;DHT22;3200;48.204;11.576;2024-01-15T04:59:34;-1.50;99.90
6335;DHT22;3200;48.204;11.576;2024-01-15T05:02:00;-1.60;99.90
6335;DHT22;3200;48.204;11.576;2024-01-15T05:04:26;-1.50;99.90
6335;DHT22;3200;48.204;11.576;2024-01-15T05:06:51;-1.40;99.90
6335;DHT22;3200;48.204;11.576;2024-01-15T05:09:18;-1.40;99.90
6335;DHT22;3200;48.204;11.576;2024-01-15T05:11:44;-1.50;99.90
6335;DHT22;3200;48.204;11.576;2024-01-15T05:14:10;-1.50;99.90
6335;DHT22;3200;48.204;11.576;2024-01-15T05:16:38;-1.40;99.90
6335;DHT22;3200;48.204;11.576;2024-01-15T05:19:04;-1.40;99.90
6335;DHT22;3200;48.204;11.576;2024-01-15T05:21:30;-1.40;99.90
6335;DHT22;3200;48.204;11.576;2024-01-15T05:23:56;-1.40;99.90
6335;DHT22;3200;48.204;11.576;2024-01-15T05:26:22;-1.50;99.90
6335;DHT22;3200;48.204;11.576;2024-01-15T05:28:48;-1.30;99.90
6335;DHT22;3200;48.204;11.576;2024-01-15T05:31:13;-1.40;99.90
6335;DHT22;3200;48.204;11.576;2024-01-15T05:33:39;-1.30;99.90
6335;DHT22;3200;48.204;11.576;2024-01-15T05:36:06;-1.40;99.90
6335;DHT22;3200;48.204;11.576;2024-01-15T05:38:32;-1.40;99.90
6335;DHT22;3200;48.204;11.576;2024-01-15T05:40:57;-1.40;99.90
6335;DHT22;3200;48.204;11.576;2024-01-15T05:43:23;-1.40;99.90
6335;DHT22;3200;48.204;11.576;2024-01-15T05:45:49;-1.40;99.90
6335;DHT22;3200;48.204;11.576;2024-01-15T05:48:15;-1.40;99.90
6335;DHT22;3200;48.204;11.576;2024-01-15T05:50:41;-1.40;99.90
6335;DHT22;3200;48.204;11.576;2024-01-15T05:53:07;-1.30;99.90
6335;DHT22;3200;48.204;11.576;2024-01-15T05:55:34;-1.40;99.90
6335;DHT22;3200;48.204;11.576;2024-01-15T05:58:01;-1.50;99.90
6335;DHT22;3200;48.204;11.576;2024-01-15T06:00:27;-1.50;99.90
6335;DHT22;3200;48.204;11.576;2024-01-15T06:02:53;-1.60;99.90
6335;DHT22;3200;48.204;11.576;2024-01-15T06:05:19;-1.50;99.90
6335;DHT22;3200;48.204;11.576;2024-01-15T06:07:44;-1.50;99.90
6335;DHT22;3200;48.204;11.576;2024-01-15T06:10:10;-1.40;99.90
6335;DHT22;3200;48.204;11.576;2024-01-15T06:12:36;-1.40;99.90
6335;DHT22;3200;48.204;11.576;2024-01-15T06:15:02;-1.40;99.90
6335;DHT22;3200;48.204;11.576;2024-01-15T06:17:28;-1.50;99.90
6335;DHT22;3200;48.204;11.576;2024-01-15T06:19:54;-1.50;99.90
6335;DHT22;3200;48.204;11.576;2024-01-15T06:22:20;-1.40;99.90
6335;DHT22;3200;48.204;11.576;2024-01-15T06:24:45;-1.40;99.90
6335;DHT22;3200;48.204;11.576;2024-01-15T06:27:11;-1.40;99.90
6335;DHT22;3200;48.204;11.576;2024-01-15T06:29:38;-1.40;99.90
6335;DHT22;3200;48.204;11.576;2024-01-15T06:32:04;-1.40;99.90
6335;DHT22;3200;48.204;11.576;2024-01-15T06:34:30;-1.30;99.90
6335;DHT22;3200;48.204;11.576;2024-01-15T06:36:56;-1.30;99.90
6335;DHT22;3200;48.204;11.576;2024-01-15T06:39:22;-1.30;99.90
6335;DHT22;3200;48.204;11.576;2024-01-15T06:41:47;-1.20;99.90
6335;DHT22;3200;48.204;11.576;2024-01-15T06:44:13;-1.30;99.90
6335;DHT22;3200;48.204;11.576;2024-01-15T06:46:43;-1.30;99.90
6335;DHT22;3200;48.204;11.576;2024-01-15T06:49:09;-1.30;99.90
6335;DHT22;3200;48.204;11.576;2024-01-15T06:51:35;-1.30;99.90
6335;DHT22;3200;48.204;11.576;2024-01-15T06:54:02;-1.20;99.90
6335;DHT22;3200;48.204;11.576;2024-01-15T06:56:27;-1.30;99.90
6335;DHT22;3200;48.204;11.576;2024-01-15T06:58:53;-1.30;99.90
6335;DHT22;3200;48.204;11.576;2024-01-15T07:01:19;-1.20;99.90
6335;DHT22;3200;48.204;11.576;2024-01-15T07:03:45;-1.20;99.90
6335;DHT22;3200;48.204;11.576;2024-01-15T07:06:11;-1.20;99.90
6335;DHT22;3200;48.204;11.576;2024-01-15T07:08:39;-1.20;99.90
6335;DHT22;3200;48.204;11.576;2024-01-15T07:11:06;-1.20;99.90
6335;DHT22;3200;48.204;11.576;2024-01-15T07:13:33;-1.20;99.90
6335;DHT22;3200;48.204;11.576;2024-01-15T07:15:59;-1.20;99.90
6335;DHT22;3200;48.204;11.576;2024-01-15T07:18:25;-1.20;99.90
6335;DHT22;3200;48.204;11.576;2024-01-15T07:20:51;-1.20;99.90
6335;DHT22;3200;48.204;11.576;2024-01-15T07:23:17;-1.10;99.90
6335;DHT22;3200;48.204;11.576;2024-01-15T07:25:43;-1.10;99.90
6335;DHT22;3200;48.204;11.576;2024-01-15T07:28:09;-1.10;99.90
6335;DHT22;3200;48.204;11.576;2024-01-15T07:30:35;-1.10;99.90
6335;DHT22;3200;48.204;11.576;2024-01-15T07:33:04;-1.10;99.90
6335;DHT22;3200;48.204;11.576;2024-01-15T07:35:30;-1.10;99.90
6335;DHT22;3200;48.204;11.576;2024-01-15T07:37:56;-1.10;99.90
6335;DHT22;3200;48.204;11.576;2024-01-15T07:40:22;-1.10;99.90
6335;DHT22;3200;48.204;11.576;2024-01-15T07:42:48;-1.10;99.90
6335;DHT22;3200;48.204;11.576;2024-01-15T07:45:14;-1.10;99.90
6335;DHT22;3200;48.204;11.576;2024-01-15T07:47:40;-1.10;99.90
6335;DHT22;3200;48.204;11.576;2024-01-15T07:50:05;-1.00;99.90
6335;DHT22;3200;48.204;11.576;2024-01-15T07:52:31;-1.00;99.90
6335;DHT22;3200;48.204;11.576;2024-01-15T07:54:58;-1.00;99.90
6335;DHT22;3200;48.204;11.576;2024-01-15T07:57:29;-0.90;99.90
6335;DHT22;3200;48.204;11.576;2024-01-15T07:59:54;-0.90;99.90
6335;DHT22;3200;48.204;11.576;2024-01-15T08:02:20;-0.90;99.90
6335;DHT22;3200;48.204;11.576;2024-01-15T08:04:47;-0.90;99.90
6335;DHT22;3200;48.204;11.576;2024-01-15T08:07:13;-0.90;99.90
6335;DHT22;3200;48.204;11.576;2024-01-15T08:09:39;-0.80;99.90
6335;DHT22;3200;48.204;11.576;2024-01-15T08:12:05;-0.80;99.90
6335;DHT22;3200;48.204;11.576;2024-01-15T08:14:31;-0.80;99.90
6335;DHT22;3200;48.204;11.576;2024-01-15T08:16:57;-0.70;99.90
6335;DHT22;3200;48.204;11.576;2024-01-15T08:19:23;-0.80;99.90
6335;DHT22;3200;48.204;11.576;2024-01-15T08:21:49;-0.80;99.90
6335;DHT22;3200;48.204;11.576;2024-01-15T08:24:15;-0.70;99.90
6335;DHT22;3200;48.204;11.576;2024-01-15T08:26:42;-0.80;99.90
6335;DHT22;3200;48.204;11.576;2024-01-15T08:29:08;-0.70;99.90
6335;DHT22;3200;48.204;11.576;2024-01-15T08:31:34;-0.70;99.90
6335;DHT22;3200;48.204;11.576;2024-01-15T08:34:00;-0.70;99.90
6335;DHT22;3200;48.204;11.576;2024-01-15T08:36:27;-0.70;99.90
6335;DHT22;3200;48.204;11.576;2024-01-15T08:38:55;-0.70;99.90
6335;DHT22;3200;48.204;11.576;2024-01-15T08:41:20;-0.90;99.90
6335;DHT22;3200;48.204;11.576;2024-01-15T08:43:46;-0.80;99.90
6335;DHT22;3200;48.204;11.576;2024-01-15T08:46:12;-0.80;99.90
6335;DHT22;3200;48.204;11.576;2024-01-15T08:48:38;-0.80;99.90
6335;DHT22;3200;48.204;11.576;2024-01-15T08:51:05;-0.70;99.90
6335;DHT22;3200;48.204;11.576;2024-01-15T08:53:31;-0.80;99.90
6335;DHT22;3200;48.204;11.576;2024-01-15T08:55:58;-0.70;99.90
6335;DHT22;3200;48.204;11.576;2024-01-15T08:58:24;-0.70;99.90
6335;DHT22;3200;48.204;11.576;2024-01-15T09:00:51;-0.60;99.90
6335;DHT22;3200;48.204;11.576;2024-01-15T09:03:17;-0.60;99.90
6335;DHT22;3200;48.204;11.576;2024-01-15T09:05:43;-0.60;99.90
6335;DHT22;3200;48.204;11.576;2024-01-15T09:08:09;-0.50;99.90
6335;DHT22;3200;48.204;11.576;2024-01-15T09:10:35;-0.50;99.90
6335;DHT22;3200;48.204;11.576;2024-01-15T09:13:01;-0.60;99.90
6335;DHT22;3200;48.204;11.576;2024-01-15T09:15:29;-0.50;99.90
6335;DHT22;3200;48.204;11.576;2024-01-15T09:17:55;-0.50;99.90
6335;DHT22;3200;48.204;11.576;2024-01-15T09:20:22;-0.40;99.90
6335;DHT22;3200;48.204;11.576;2024-01-15T09:22:49;-0.50;99.90
6335;DHT22;3200;48.204;11.576;2024-01-15T09:25:14;-0.40;99.90
6335;DHT22;3200;48.204;11.576;2024-01-15T09:27:40;-0.40;99.90
6335;DHT22;3200;48.204;11.576;2024-01-15T09:30:06;-0.40;99.90
6335;DHT22;3200;48.204;11.576;2024-01-15T09:32:33;-0.30;99.90
6335;DHT22;3200;48.204;11.576;2024-01-15T09:34:59;-0.30;99.90
6335;DHT22;3200;48.204;11.576;2024-01-15T09:37:25;-0.30;99.90
6335;DHT22;3200;48.204;11.576;2024-01-15T09:39:51;-0.20;99.90
6335;DHT22;3200;48.204;11.576;2024-01-15T09:42:17;-0.20;99.90
6335;DHT22;3200;48.204;11.576;2024-01-15T09:44:45;-0.20;99.90
6335;DHT22;3200;48.204;11.576;2024-01-15T09:47:12;-0.10;99.90
6335;DHT22;3200;48.204;11.576;2024-01-15T09:49:38;-0.20;99.90
6335;DHT22;3200;48.204;11.576;2024-01-15T09:52:07;-0.20;99.90
6335;DHT22;3200;48.204;11.576;2024-01-15T09:54:34;-0.10;99.90
6335;DHT22;3200;48.204;11.576;2024-01-15T09:57:01;-0.20;99.90
6335;DHT22;3200;48.204;11.576;2024-01-15T09:59:27;-0.10;99.90
6335;DHT22;3200;48.204;11.576;2024-01-15T10:01:54;-0.10;99.90
6335;DHT22;3200;48.204;11.576;2024-01-15T10:04:21;0.00;99.90
6335;DHT22;3200;48.204;11.576;2024-01-15T10:06:51;0.10;99.90
6335;DHT22;3200;48.204;11.576;2024-01-15T10:09:17;0.10;99.90
6335;DHT22;3200;48.204;11.576;2024-01-15T10:11:44;0.20;99.90
6335;DHT22;3200;48.204;11.576;2024-01-15T10:14:12;0.30;99.90
6335;DHT22;3200;48.204;11.576;2024-01-15T10:16:39;0.20;99.90
6335;DHT22;3200;48.204;11.576;2024-01-15T10:19:05;0.30;99.90
6335;DHT22;3200;48.204;11.576;2024-01-15T10:21:35;0.30;99.90
6335;DHT22;3200;48.204;11.576;2024-01-15T10:24:03;0.40;99.90
6335;DHT22;3200;48.204;11.576;2024-01-15T10:26:30;0.30;99.90
6335;DHT22;3200;48.204;11.576;2024-01-15T10:29:00;0.30;99.90
6335;DHT22;3200;48.204;11.576;2024-01-15T10:31:27;0.40;99.90
6335;DHT22;3200;48.204;11.576;2024-01-15T10:33:53;0.30;99.90
6335;DHT22;3200;48.204;11.576;2024-01-15T10:36:19;0.30;99.90
6335;DHT22;3200;48.204;11.576;2024-01-15T10:38:45;0.30;99.90
6335;DHT22;3200;48.204;11.576;2024-01-15T10:41:12;0.40;99.90
6335;DHT22;3200;48.204;11.576;2024-01-15T10:43:38;0.40;99.90
6335;DHT22;3200;48.204;11.576;2024-01-15T10:46:07;0.50;99.90
6335;DHT22;3200;48.204;11.576;2024-01-15T10:48:34;0.40;99.90
6335;DHT22;3200;48.204;11.576;2024-01-15T10:51:01;0.50;99.90
6335;DHT22;3200;48.204;11.576;2024-01-15T10:53:39;0.60;99.90
6335;DHT22;3200;48.204;11.576;2024-01-15T10:56:07;0.60;99.90
6335;DHT22;3200;48.204;11.576;2024-01-15T10:58:34;0.70;99.90
6335;DHT22;3200;48.204;11.576;2024-01-15T11:01:02;0.80;99.90
6335;DHT22;3200;48.204;11.576;2024-01-15T11:03:28;0.60;99.90
6335;DHT22;3200;48.204;11.576;2024-01-15T11:05:54;0.70;99.90
6335;DHT22;3200;48.204;11.576;2024-01-15T11:08:20;0.70;99.90
6335;DHT22;3200;48.204;11.576;2024-01-15T11:10:50;0.70;99.90
6335;DHT22;3200;48.204;11.576;2024-01-15T11:16:01;0.80;99.90
6335;DHT22;3200;48.204;11.576;2024-01-15T11:19:20;0.80;99.90
6335;DHT22;3200;48.204;11.576;2024-01-15T11:21:28;0.90;99.90
6335;DHT22;3200;48.204;11.576;2024-01-15T11:24:01;1.00;99.90
6335;DHT22;3200;48.204;11.576;2024-01-15T11:26:37;1.00;99.90
6335;DHT22;3200;48.204;11.576;2024-01-15T11:34:21;1.00;99.90
6335;DHT22;3200;48.204;11.576;2024-01-15T11:37:24;1.10;99.90
6335;DHT22;3200;48.204;11.576;2024-01-15T11:39:56;1.00;99.90
6335;DHT22;3200;48.204;11.576;2024-01-15T11:42:26;0.90;99.90
6335;DHT22;3200;48.204;11.576;2024-01-15T11:44:53;1.00;99.90
6335;DHT22;3200;48.204;11.576;2024-01-15T11:47:39;0.70;99.90
6335;DHT22;3200;48.204;11.576;2024-01-15T11:50:21;0.60;99.90
6335;DHT22;3200;48.204;11.576;2024-01-15T11:53:00;0.40;99.90
6335;DHT22;3200;48.204;11.576;2024-01-15T11:55:31;0.40;99.90
6335;DHT22;3200;48.204;11.576;2024-01-15T11:58:01;0.40;99.90
6335;DHT22;3200;48.204;11.576;2024-01-15T12:00:29;0.30;99.90
6335;DHT22;3200;48.204;11.576;2024-01-15T12:02:55;0.40;99.90
6335;DHT22;3200;48.204;11.576;2024-01-15T12:05:22;0.30;99.90
6335;DHT22;3200;48.204;11.576;2024-01-15T12:07:49;0.40;99.90
6335;DHT22;3200;48.204;11.576;2024-01-15T12:10:20;0.30;99.90
6335;DHT22;3200;48.204;11.576;2024-01-15T12:15:18;0.30;99.90
6335;DHT22;3200;48.204;11.576;2024-01-15T12:17:44;0.30;99.90
6335;DHT22;3200;48.204;11.576;2024-01-15T12:20:11;0.30;99.90
6335;DHT22;3200;48.204;11.576;2024-01-15T12:22:38;0.30;99.90
6335;DHT22;3200;48.204;11.576;2024-01-15T12:25:04;0.20;99.90
6335;DHT22;3200;48.204;11.576;2024-01-15T12:27:30;0.30;99.90
6335;DHT22;3200;48.204;11.576;2024-01-15T12:29:58;0.20;99.90
6335;DHT22;3200;48.204;11.576;2024-01-15T12:32:25;0.10;99.90
6335;DHT22;3200;48.204;11.576;2024-01-15T12:34:51;0.10;99.90
6335;DHT22;3200;48.204;11.576;2024-01-15T12:37:22;-0.10;99.90
6335;DHT22;3200;48.204;11.576;2024-01-15T12:39:49;-0.10;99.90
6335;DHT22;3200;48.204;11.576;2024-01-15T12:42:16;-0.10;99.90
6335;DHT22;3200;48.204;11.576;2024-01-15T12:44:43;0.00;99.90
6335;DHT22;3200;48.204;11.576;2024-01-15T12:47:10;-0.10;99.90
6335;DHT22;3200;48.204;11.576;2024-01-15T12:49:37;0.00;99.90
6335;DHT22;3200;48.204;11.576;2024-01-15T12:52:03;-0.10;99.90
6335;DHT22;3200;48.204;11.576;2024-01-15T12:54:29;0.00;99.90
6335;DHT22;3200;48.204;11.576;2024-01-15T12:56:55;0.00;99.90
6335;DHT22;3200;48.204;11.576;2024-01-15T12:59:21;0.00;99.90
6335;DHT22;3200;48.204;11.576;2024-01-15T13:01:47;0.20;99.90
6335;DHT22;3200;48.204;11.576;2024-01-15T13:04:25;0.40;99.90
6335;DHT22;3200;48.204;11.576;2024-01-15T13:06:51;0.50;99.90
6335;DHT22;3200;48.204;11.576;2024-01-15T13:09:18;0.60;99.90
6335;DHT22;3200;48.204;11.576;2024-01-15T13:11:47;0.70;99.90
6335;DHT22;3200;48.204;11.576;2024-01-15T13:14:13;0.90;99.90
6335;DHT22;3200;48.204;11.576;2024-01-15T13:16:40;1.10;99.90
6335;DHT22;3200;48.204;11.576;2024-01-15T13:19:08;1.30;99.90
6335;DHT22;3200;48.204;11.576;2024-01-15T13:21:42;1.30;99.90
6335;DHT22;3200;48.204;11.576;2024-01-15T13:24:08;1.30;99.90
6335;DHT22;3200;48.204;11.576;2024-01-15T13:26:35;1.30;99.90
6335;DHT22;3200;48.204;11.576;2024-01-15T13:29:04;1.40;99.90
6335;DHT22;3200;48.204;11.576;2024-01-15T13:31:30;1.40;99.90
6335;DHT22;3200;48.204;11.576;2024-01-15T13:33:57;1.30;99.90
6335;DHT22;3200;48.204;11.576;2024-01-15T13:36:23;1.30;99.90
6335;DHT22;3200;48.204;11.576;2024-01-15T13:38:51;1.20;99.90
6335;DHT22;3200;48.204;11.576;2024-01-15T13:41:18;1.20;99.90
6335;DHT22;3200;48.204;11.576;2024-01-15T13:43:53;1.20;99.90
6335;DHT22;3200;48.204;11.576;2024-01-15T13:46:22;1.30;99.90
6335;DHT22;3200;48.204;11.576;2024-01-15T13:48:50;1.30;99.90
6335;DHT22;3200;48.204;11.576;2024-01-15T13:51:18;1.30;99.90
6335;DHT22;3200;48.204;11.576;2024-01-15T13:53:45;1.30;99.90
6335;DHT22;3200;48.204;11.576;2024-01-15T13:56:11;1.20;99.90
6335;DHT22;3200;48.204;11.576;2024-01-15T13:58:38;1.30;99.90
6335;DHT22;3200;48.204;11.576;2024-01-15T14:01:04;1.30;99.90
6335;DHT22;3200;48.204;11.576;2024-01-15T14:03:31;1.20;99.90
6335;DHT22;3200;48.204;11.576;2024-01-15T14:05:58;1.20;99.90
6335;DHT22;3200;48.204;11.576;2024-01-15T14:08:24;1.10;99.90
6335;DHT22;3200;48.204;11.576;2024-01-15T14:10:51;1.00;99.90
6335;DHT22;3200;48.204;11.576;2024-01-15T14:13:17;1.00;99.90
6335;DHT22;3200;48.204;11.576;2024-01-15T14:15:43;1.00;99.90
6335;DHT22;3200;48.204;11.576;2024-01-15T14:18:09;1.10;99.90
6335;DHT22;3200;48.204;11.576;2024-01-15T14:20:34;1.10;99.90
6335;DHT22;3200;48.204;11.576;2024-01-15T14:23:00;1.00;99.90
6335;DHT22;3200;48.204;11.576;2024-01-15T14:25:26;1.00;99.90
6335;DHT22;3200;48.204;11.576;2024-01-15T14:27:52;0.90;99.90
6335;DHT22;3200;48.204;11.576;2024-01-15T14:30:18;0.90;99.90
6335;DHT22;3200;48.204;11.576;2024-01-15T14:32:43;0.80;99.90
6335;DHT22;3200;48.204;11.576;2024-01-15T14:35:10;0.90;99.90
6335;DHT22;3200;48.204;11.576;2024-01-15T14:37:39;0.70;99.90
6335;DHT22;3200;48.204;11.576;2024-01-15T14:40:09;0.70;99.90
6335;DHT22;3200;48.204;11.576;2024-01-15T14:42:39;0.80;99.90
6335;DHT22;3200;48.204;11.576;2024-01-15T14:45:05;0.70;99.90
6335;DHT22;3200;48.204;11.576;2024-01-15T14:47:40;0.70;99.90
6335;DHT22;3200;48.204;11.576;2024-01-15T14:50:07;0.60;99.90
6335;DHT22;3200;48.204;11.576;2024-01-15T14:52:36;0.50;99.90
6335;DHT22;3200;48.204;11.576;2024-01-15T14:55:02;0.50;99.90
6335;DHT22;3200;48.204;11.576;2024-01-15T14:57:28;0.50;99.90
6335;DHT22;3200;48.204;11.576;2024-01-15T14:59:54;0.50;99.90
6335;DHT22;3200;48.204;11.576;2024-01-15T15:02:20;0.50;99.90
6335;DHT22;3200;48.204;11.576;2024-01-15T15:04:46;0.50;99.90
6335;DHT22;3200;48.204;11.576;2024-01-15T15:07:12;0.60;99.90
6335;DHT22;3200;48.204;11.576;2024-01-15T15:09:38;0.50;99.90
6335;DHT22;3200;48.204;11.576;2024-01-15T15:12:05;0.50;99.90
6335;DHT22;3200;48.204;11.576;2024-01-15T15:14:31;0.50;99.90
6335;DHT22;3200;48.204;11.576;2024-01-15T15:17:04;0.40;99.90
6335;DHT22;3200;48.204;11.576;2024-01-15T15:19:31;0.40;99.90
6335;DHT22;3200;48.204;11.576;2024-01-15T15:21:58;0.40;99.90
6335;DHT22;3200;48.204;11.576;2024-01-15T15:24:25;0.40;99.90
6335;DHT22;3200;48.204;11.576;2024-01-15T15:26:51;0.30;99.90
6335;DHT22;3200;48.204;11.576;2024-01-15T15:29:17;0.40;99.90
6335;DHT22;3200;48.204;11.576;2024-01-15T15:31:44;0.40;99.90
6335;DHT22;3200;48.204;11.576;2024-01-15T15:34:10;0.30;99.90
6335;DHT22;3200;48.204;11.576;2024-01-15T15:36:36;0.30;99.90
6335;DHT22;3200;48.204;11.576;2024-01-15T15:39:02;0.30;99.90
6335;DHT22;3200;48.204;11.576;2024-01-15T15:41:28;0.30;99.90
6335;DHT22;3200;48.204;11.576;2024-01-15T15:43:54;0.30;99.90
6335;DHT22;3200;48.204;11.576;2024-01-15T15:46:20;0.40;99.90
6335;DHT22;3200;48.204;11.576;2024-01-15T15:48:46;0.30;99.90
6335;DHT22;3200;48.204;11.576;2024-01-15T15:51:12;0.40;99.90
6335;DHT22;3200;48.204;11.576;2024-01-15T15:53:38;0.40;99.90
6335;DHT22;3200;48.204;11.576;2024-01-15T15:56:04;0.40;99.90
6335;DHT22;3200;48.204;11.576;2024-01-15T15:58:30;0.30;99.90
6335;DHT22;3200;48.204;11.576;2024-01-15T16:00:56;0.30;99.90